sensor_id;sensor_type;location;lat;lon;timestamp;pressure;altitude;pressure_sealevel;temperature;humidity
63901;BME280;50538;53.482;10.294;2023-04-23T00:05:41;100097.13;;;16.45;78.86
63901;BME280;50538;53.482;10.294;2023-04-23T00:15:46;100089.34;;;16.37;79.57
63901;BME280;50538;53.482;10.294;2023-04-23T00:25:58;100084.69;;;16.26;80.68
63901;BME280;50538;53.482;10.294;2023-04-23T00:36:03;100082.13;;;16.13;82.36
63901;BME280;50538;53.482;10.294;2023-04-23T00:46:07;100094.56;;;16.01;84.68
63901;BME280;50538;53.482;10.294;2023-04-23T00:56:08;100081.25;;;15.87;86.51
63901;BME280;50538;53.482;10.294;2023-04-23T01:06:13;100076.81;;;15.75;87.72
63901;BME280;50538;53.482;10.294;2023-04-23T01:16:15;100071.81;;;15.53;89.73
63901;BME280;50538;53.482;10.294;2023-04-23T01:26:23;100078.91;;;15.35;91.39
63901;BME280;50538;53.482;10.294;2023-04-23T01:36:44;100075.41;;;15.28;92.29
63901;BME280;50538;53.482;10.294;2023-04-23T01:47:07;100081.00;;;15.19;93.13
63901;BME280;50538;53.482;10.294;2023-04-23T01:57:25;100075.28;;;15.09;94.03
63901;BME280;50538;53.482;10.294;2023-04-23T02:07:29;100078.19;;;15.01;94.55
63901;BME280;50538;53.482;10.294;2023-04-23T02:17:46;100076.13;;;14.97;94.49
63901;BME280;50538;53.482;10.294;2023-04-23T02:28:14;100077.38;;;14.94;94.46
63901;BME280;50538;53.482;10.294;2023-04-23T02:38:17;100073.47;;;14.90;95.05
63901;BME280;50538;53.482;10.294;2023-04-23T02:48:29;100113.00;;;14.62;92.03
63901;BME280;50538;53.482;10.294;2023-04-23T03:09:17;100126.28;;;13.82;93.30
63901;BME280;50538;53.482;10.294;2023-04-23T03:19:52;100138.00;;;13.27;92.66
63901;BME280;50538;53.482;10.294;2023-04-23T03:30:14;100139.56;;;13.15;93.11
63901;BME280;50538;53.482;10.294;2023-04-23T03:40:48;100159.25;;;12.79;92.24
63901;BME280;50538;53.482;10.294;2023-04-23T03:50:49;100153.44;;;12.69;91.94
63901;BME280;50538;53.482;10.294;2023-04-23T04:00:53;100153.91;;;12.51;93.19
63901;BME280;50538;53.482;10.294;2023-04-23T04:10:55;100164.00;;;12.41;92.52
63901;BME280;50538;53.482;10.294;2023-04-23T04:21:03;100168.81;;;12.24;93.32
63901;BME280;50538;53.482;10.294;2023-04-23T04:31:27;100182.41;;;12.15;93.80
63901;BME280;50538;53.482;10.294;2023-04-23T04:41:36;100198.88;;;12.04;93.21
63901;BME280;50538;53.482;10.294;2023-04-23T04:51:44;100206.63;;;11.84;92.53
63901;BME280;50538;53.482;10.294;2023-04-23T05:12:32;100225.34;;;11.76;90.27
63901;BME280;50538;53.482;10.294;2023-04-23T05:22:48;100239.03;;;11.73;88.38
63901;BME280;50538;53.482;10.294;2023-04-23T05:32:56;100241.75;;;11.79;88.42
63901;BME280;50538;53.482;10.294;2023-04-23T05:43:27;100258.91;;;11.77;88.06
63901;BME280;50538;53.482;10.294;2023-04-23T05:53:29;100264.88;;;11.79;85.35
63901;BME280;50538;53.482;10.294;2023-04-23T06:03:46;100265.97;;;11.84;86.20
63901;BME280;50538;53.482;10.294;2023-04-23T06:47:41;100288.63;;;11.80;82.14
63901;BME280;50538;53.482;10.294;2023-04-23T09:40:51;100218.47;;;16.21;61.55
63901;BME280;50538;53.482;10.294;2023-04-23T10:13:22;100219.16;;;17.59;56.13
63901;BME280;50538;53.482;10.294;2023-04-23T10:23:53;100199.81;;;17.87;56.22
63901;BME280;50538;53.482;10.294;2023-04-23T10:34:22;100202.38;;;18.42;53.65
63901;BME280;50538;53.482;10.294;2023-04-23T11:05:34;100196.38;;;19.40;50.98
63901;BME280;50538;53.482;10.294;2023-04-23T11:15:45;100186.47;;;19.69;47.64
63901;BME280;50538;53.482;10.294;2023-04-23T11:37:24;100174.59;;;20.55;47.58
63901;BME280;50538;53.482;10.294;2023-04-23T11:47:42;100148.91;;;20.86;46.57
63901;BME280;50538;53.482;10.294;2023-04-23T11:58:07;100152.25;;;21.32;47.34
63901;BME280;50538;53.482;10.294;2023-04-23T12:08:22;100144.56;;;21.67;46.05
63901;BME280;50538;53.482;10.294;2023-04-23T12:19:27;100138.91;;;21.91;44.68
63901;BME280;50538;53.482;10.294;2023-04-23T12:30:09;100136.19;;;22.18;44.53
63901;BME280;50538;53.482;10.294;2023-04-23T12:40:22;100128.72;;;22.62;43.20
63901;BME280;50538;53.482;10.294;2023-04-23T12:50:23;100117.88;;;22.57;42.13
63901;BME280;50538;53.482;10.294;2023-04-23T13:00:25;100104.28;;;22.89;42.59
63901;BME280;50538;53.482;10.294;2023-04-23T13:10:38;100104.63;;;22.65;42.69
63901;BME280;50538;53.482;10.294;2023-04-23T13:33:02;100085.88;;;22.17;45.92
63901;BME280;50538;53.482;10.294;2023-04-23T14:28:08;99989.28;;;23.06;40.70
63901;BME280;50538;53.482;10.294;2023-04-23T14:50:03;99977.50;;;21.59;42.97
63901;BME280;50538;53.482;10.294;2023-04-23T15:11:16;99973.19;;;20.61;45.81
63901;BME280;50538;53.482;10.294;2023-04-23T15:21:17;99984.53;;;19.91;48.83
63901;BME280;50538;53.482;10.294;2023-04-23T15:31:20;99985.78;;;19.38;51.92
63901;BME280;50538;53.482;10.294;2023-04-23T15:41:23;100002.59;;;19.16;54.03
63901;BME280;50538;53.482;10.294;2023-04-23T15:51:25;99994.56;;;19.05;58.27
63901;BME280;50538;53.482;10.294;2023-04-23T16:01:29;99976.22;;;19.02;64.35
63901;BME280;50538;53.482;10.294;2023-04-23T16:11:29;99961.78;;;18.79;66.26
63901;BME280;50538;53.482;10.294;2023-04-23T16:21:30;99953.63;;;18.63;66.08
63901;BME280;50538;53.482;10.294;2023-04-23T16:31:31;99943.50;;;18.41;66.62
63901;BME280;50538;53.482;10.294;2023-04-23T16:41:31;99941.03;;;18.16;68.04
63901;BME280;50538;53.482;10.294;2023-04-23T16:51:32;99938.84;;;17.90;68.80
63901;BME280;50538;53.482;10.294;2023-04-23T17:01:33;99970.78;;;17.57;70.16
63901;BME280;50538;53.482;10.294;2023-04-23T17:11:33;99968.50;;;17.12;74.45
63901;BME280;50538;53.482;10.294;2023-04-23T17:21:34;99950.66;;;16.87;77.45
63901;BME280;50538;53.482;10.294;2023-04-23T17:31:34;99939.69;;;16.77;78.48
63901;BME280;50538;53.482;10.294;2023-04-23T17:41:35;99918.69;;;17.04;79.06
63901;BME280;50538;53.482;10.294;2023-04-23T17:51:35;99902.88;;;17.26;74.68
63901;BME280;50538;53.482;10.294;2023-04-23T18:01:36;99913.41;;;16.98;73.56
63901;BME280;50538;53.482;10.294;2023-04-23T18:11:37;99914.91;;;16.64;73.69
63901;BME280;50538;53.482;10.294;2023-04-23T18:21:39;99908.13;;;16.43;74.10
63901;BME280;50538;53.482;10.294;2023-04-23T18:31:40;99907.00;;;16.14;73.20
63901;BME280;50538;53.482;10.294;2023-04-23T21:52:06;99685.41;;;13.16;84.26
63901;BME280;50538;53.482;10.294;2023-04-23T23:20:02;99639.16;;;13.42;84.13
63901;BME280;50538;53.482;10.294;2023-04-23T23:30:27;99638.03;;;13.24;86.85
63901;BME280;50538;53.482;10.294;2023-04-23T23:51:59;99622.91;;;12.92;90.71
